createdAt,value
2018-12-27T00:01:15.089Z,64.93
2018-12-27T00:03:43.475Z,64.98
2018-12-27T00:06:12.099Z,65.05
2018-12-27T00:08:40.833Z,65.04
2018-12-27T00:11:09.223Z,65.09
2018-12-27T00:13:37.917Z,64.98
2018-12-27T00:16:06.317Z,64.81
2018-12-27T00:18:34.706Z,64.06
2018-12-27T00:21:03.364Z,63.72
2018-12-27T00:23:31.752Z,63.52
2018-12-27T00:26:00.538Z,63.47
2018-12-27T00:28:28.937Z,63.77
2018-12-27T00:30:57.448Z,64.24
2018-12-27T00:33:25.979Z,64.64
2018-12-27T00:35:54.867Z,64.76
2018-12-27T00:38:23.757Z,64.85
2018-12-27T00:40:52.646Z,64.72
2018-12-27T00:43:21.169Z,64.26
2018-12-27T00:45:49.685Z,64.38
2018-12-27T00:48:18.208Z,64.58
2018-12-27T00:50:46.721Z,64.50
2018-12-27T00:53:15.665Z,64.66
2018-12-27T00:55:44.179Z,64.64
2018-12-27T00:58:13.035Z,64.48
2018-12-27T01:00:41.549Z,64.57
2018-12-27T01:03:11.216Z,64.73
2018-12-27T01:05:40.103Z,64.80
2018-12-27T01:08:08.621Z,64.83
2018-12-27T01:10:37.135Z,64.73
2018-12-27T01:13:05.761Z,64.71
2018-12-27T01:15:34.273Z,64.64
2018-12-27T01:18:02.798Z,64.45
2018-12-27T01:20:31.390Z,64.29
2018-12-27T01:22:59.900Z,64.09
2018-12-27T01:25:28.418Z,63.76
2018-12-27T01:27:56.924Z,63.99
2018-12-27T01:30:25.755Z,64.17
2018-12-27T01:32:54.395Z,64.17
2018-12-27T01:35:23.109Z,63.95
2018-12-27T01:37:51.619Z,63.92
2018-12-27T01:40:20.495Z,63.95
2018-12-27T01:42:49.387Z,63.95
2018-12-27T01:45:17.903Z,64.03
2018-12-27T01:47:46.766Z,64.04
2018-12-27T01:50:15.284Z,63.91
2018-12-27T01:52:43.794Z,63.85
2018-12-27T01:55:12.321Z,63.89
2018-12-27T01:57:40.827Z,64.00
2018-12-27T02:00:09.419Z,63.99
2018-12-27T02:02:38.672Z,63.97
2018-12-27T02:05:07.259Z,64.00
2018-12-27T02:07:35.779Z,64.04
2018-12-27T02:10:04.727Z,64.01
2018-12-27T02:12:33.627Z,63.67
2018-12-27T02:15:02.493Z,63.92
2018-12-27T02:17:31.017Z,64.11
2018-12-27T02:19:59.883Z,64.49
2018-12-27T02:22:28.415Z,64.61
2018-12-27T02:24:57.256Z,64.62
2018-12-27T02:27:25.783Z,64.68
2018-12-27T02:29:54.296Z,64.72
2018-12-27T02:32:22.815Z,64.47
2018-12-27T02:34:51.596Z,63.59
2018-12-27T02:37:20.115Z,63.50
2018-12-27T02:39:48.633Z,63.61
2018-12-27T02:42:17.154Z,63.61
2018-12-27T02:44:45.666Z,63.67
2018-12-27T02:47:14.191Z,63.64
2018-12-27T02:49:42.702Z,63.41
2018-12-27T02:52:11.210Z,63.41
2018-12-27T02:54:40.264Z,62.94
2018-12-27T02:57:08.973Z,62.75
2018-12-27T02:59:37.550Z,62.88
2018-12-27T03:16:43.676Z,62.87
2018-12-27T03:19:12.190Z,62.75
2018-12-27T03:21:41.069Z,62.54
2018-12-27T03:24:09.953Z,62.68
2018-12-27T03:26:38.477Z,62.87
2018-12-27T03:29:06.995Z,62.88
2018-12-27T03:31:35.849Z,63.02
2018-12-27T03:34:04.354Z,63.11
2018-12-27T03:36:32.875Z,63.23
2018-12-27T03:39:01.402Z,63.40
2018-12-27T03:41:29.916Z,63.69
2018-12-27T03:43:58.437Z,63.93
2018-12-27T03:46:27.091Z,64.08
2018-12-27T03:48:55.612Z,63.49
2018-12-27T03:51:24.126Z,63.35
2018-12-27T03:53:52.651Z,63.61
2018-12-27T03:56:21.170Z,64.30
2018-12-27T03:58:50.118Z,64.17
2018-12-27T04:01:18.869Z,63.70
2018-12-27T04:03:47.911Z,63.74
2018-12-27T04:06:16.800Z,63.87
2018-12-27T04:08:45.331Z,64.13
2018-12-27T04:11:13.953Z,64.37
2018-12-27T04:13:42.882Z,64.50
2018-12-27T04:16:11.264Z,64.74
2018-12-27T04:18:39.645Z,64.91
2018-12-27T04:21:08.302Z,65.03
2018-12-27T04:23:37.052Z,65.03
2018-12-27T04:26:06.084Z,65.17
2018-12-27T04:28:34.469Z,65.23
2018-12-27T04:31:03.145Z,65.33
2018-12-27T04:33:32.265Z,65.37
2018-12-27T04:36:00.838Z,65.45
2018-12-27T04:38:29.227Z,65.64
2018-12-27T04:40:57.621Z,66.03
2018-12-27T04:43:26.940Z,66.41
2018-12-27T04:45:55.400Z,66.70
2018-12-27T04:48:24.058Z,66.82
2018-12-27T04:50:52.457Z,67.08
2018-12-27T04:53:21.229Z,67.33
2018-12-27T04:55:49.634Z,67.53
2018-12-27T04:58:18.014Z,68.11
2018-12-27T05:00:46.398Z,67.85
2018-12-27T05:03:14.791Z,68.08
2018-12-27T05:05:43.182Z,68.01
2018-12-27T05:08:11.728Z,68.00
2018-12-27T05:10:40.119Z,67.97
2018-12-27T05:13:08.512Z,67.92
2018-12-27T05:15:36.889Z,68.01
2018-12-27T05:18:05.547Z,68.01
2018-12-27T05:20:33.928Z,68.20
2018-12-27T05:23:02.331Z,68.28
2018-12-27T05:25:30.888Z,68.42
2018-12-27T05:27:59.570Z,68.66
2018-12-27T05:30:28.266Z,68.58
2018-12-27T05:32:56.931Z,68.63
2018-12-27T05:35:25.328Z,68.73
2018-12-27T05:37:53.709Z,68.80
2018-12-27T05:40:22.100Z,68.74
2018-12-27T05:42:50.849Z,68.63
2018-12-27T05:45:19.240Z,68.61
2018-12-27T05:47:47.632Z,68.54
2018-12-27T05:50:16.020Z,68.42
2018-12-27T05:52:44.404Z,68.32
2018-12-27T05:55:13.053Z,68.22
2018-12-27T05:57:41.438Z,68.27
2018-12-27T06:00:09.901Z,68.20
2018-12-27T06:02:38.279Z,68.12
2018-12-27T06:05:06.690Z,68.07
2018-12-27T06:07:35.084Z,68.42
2018-12-27T06:10:04.769Z,68.54
2018-12-27T06:12:33.158Z,68.36
2018-12-27T06:15:01.546Z,68.44
2018-12-27T06:17:29.932Z,68.56
2018-12-27T06:19:58.499Z,68.63
2018-12-27T06:22:26.889Z,68.64
2018-12-27T06:24:56.158Z,68.65
2018-12-27T06:27:24.932Z,68.65
2018-12-27T06:29:53.316Z,68.73
2018-12-27T06:32:21.717Z,68.82
2018-12-27T06:34:50.101Z,68.88
2018-12-27T06:37:18.873Z,68.98
2018-12-27T06:39:47.270Z,68.94
2018-12-27T06:42:15.660Z,68.90
2018-12-27T06:44:44.046Z,69.13
2018-12-27T06:47:12.427Z,69.52
2018-12-27T06:49:40.819Z,69.34
2018-12-27T06:52:09.209Z,69.25
2018-12-27T06:54:37.604Z,69.05
2018-12-27T06:57:06.295Z,69.11
2018-12-27T06:59:35.001Z,69.21
2018-12-27T07:02:03.390Z,69.23
2018-12-27T07:04:31.987Z,69.34
2018-12-27T07:07:00.373Z,69.35
2018-12-27T07:09:28.775Z,69.38
2018-12-27T07:11:57.156Z,69.58
2018-12-27T07:14:25.550Z,69.59
2018-12-27T07:16:53.946Z,69.58
2018-12-27T07:19:22.646Z,69.58
2018-12-27T07:21:51.035Z,69.64
2018-12-27T07:24:19.810Z,69.60
2018-12-27T07:26:48.201Z,69.55
2018-12-27T07:29:16.693Z,69.46
2018-12-27T07:31:45.074Z,69.32
2018-12-27T07:34:13.477Z,69.21
2018-12-27T07:36:41.860Z,69.29
2018-12-27T07:39:10.485Z,69.38
2018-12-27T07:41:38.893Z,69.56
2018-12-27T07:44:07.280Z,69.49
2018-12-27T07:46:35.943Z,69.60
2018-12-27T07:49:04.660Z,69.65
2018-12-27T07:51:33.204Z,69.63
2018-12-27T07:54:01.657Z,69.62
2018-12-27T07:56:30.124Z,69.62
2018-12-27T07:58:59.001Z,69.54
2018-12-27T08:01:27.453Z,69.49
2018-12-27T08:03:55.892Z,69.39
2018-12-27T08:06:24.390Z,69.27
2018-12-27T08:08:52.862Z,69.23
2018-12-27T08:11:21.338Z,69.18
2018-12-27T08:13:49.775Z,69.02
2018-12-27T08:16:18.166Z,68.92
2018-12-27T08:18:46.587Z,68.75
2018-12-27T08:21:15.075Z,68.58
2018-12-27T08:23:43.467Z,68.43
2018-12-27T08:26:11.853Z,68.33
2018-12-27T08:28:40.298Z,68.18
2018-12-27T08:31:08.999Z,68.25
2018-12-27T08:33:37.700Z,68.31
2018-12-27T08:36:06.093Z,68.38
2018-12-27T08:38:34.951Z,68.41
2018-12-27T08:41:03.271Z,68.24
2018-12-27T08:43:32.248Z,68.18
2018-12-27T08:46:00.644Z,68.21
2018-12-27T08:48:29.022Z,68.23
2018-12-27T08:50:57.403Z,68.32
2018-12-27T08:53:25.866Z,68.37
2018-12-27T08:55:54.274Z,68.31
2018-12-27T08:58:23.133Z,68.42
2018-12-27T09:00:51.522Z,68.39
2018-12-27T09:03:19.910Z,68.17
2018-12-27T09:05:48.301Z,68.20
2018-12-27T09:08:16.762Z,68.23
2018-12-27T09:10:45.193Z,68.30
2018-12-27T09:13:13.584Z,68.31
2018-12-27T09:15:41.969Z,68.31
2018-12-27T09:18:10.359Z,68.28
2018-12-27T09:20:38.751Z,68.16
2018-12-27T09:23:07.144Z,67.94
2018-12-27T09:25:35.523Z,67.74
2018-12-27T09:28:03.922Z,67.63
2018-12-27T09:30:32.304Z,67.72
2018-12-27T09:33:00.918Z,67.79
2018-12-27T09:35:29.300Z,67.81
2018-12-27T09:37:57.796Z,67.68
2018-12-27T09:40:26.269Z,67.49
2018-12-27T09:42:54.762Z,67.37
2018-12-27T09:45:23.456Z,66.79
2018-12-27T09:47:51.848Z,66.39
2018-12-27T09:50:20.227Z,66.03
2018-12-27T09:52:48.612Z,65.64
2018-12-27T09:55:17.151Z,65.00
2018-12-27T09:57:45.586Z,64.42
2018-12-27T10:00:13.978Z,62.60
2018-12-27T10:02:42.527Z,62.53
2018-12-27T10:05:10.920Z,61.43
2018-12-27T10:07:39.307Z,60.18
2018-12-27T10:10:07.767Z,57.53
2018-12-27T10:12:36.165Z,57.18
2018-12-27T10:15:06.986Z,56.47
2018-12-27T10:17:35.471Z,54.54
2018-12-27T10:20:04.350Z,55.16
2018-12-27T10:22:32.947Z,55.63
2018-12-27T10:25:01.335Z,55.74
2018-12-27T10:27:29.721Z,56.01
2018-12-27T10:29:58.115Z,55.61
2018-12-27T10:32:26.501Z,55.50
2018-12-27T10:34:55.132Z,55.28
2018-12-27T10:37:23.523Z,53.98
2018-12-27T10:39:52.074Z,53.55
2018-12-27T10:42:20.589Z,52.92
2018-12-27T10:44:49.260Z,52.33
2018-12-27T10:47:17.652Z,51.61
2018-12-27T10:49:46.039Z,52.18
2018-12-27T10:52:14.436Z,52.15
2018-12-27T10:54:42.994Z,51.73
2018-12-27T10:57:11.662Z,51.73
2018-12-27T10:59:40.049Z,52.23
2018-12-27T11:02:08.687Z,52.75
2018-12-27T11:04:37.069Z,51.95
2018-12-27T11:07:05.463Z,51.87
2018-12-27T11:09:34.276Z,51.87
2018-12-27T11:12:02.666Z,51.93
2018-12-27T11:14:31.056Z,52.09
2018-12-27T11:16:59.455Z,51.76
2018-12-27T11:19:27.841Z,52.15
2018-12-27T11:21:56.224Z,52.21
2018-12-27T11:24:24.619Z,51.94
2018-12-27T11:26:52.999Z,50.71
2018-12-27T11:29:21.396Z,51.26
2018-12-27T11:31:49.781Z,52.06
2018-12-27T11:34:18.186Z,51.97
2018-12-27T11:36:46.563Z,52.26
2018-12-27T11:39:15.154Z,52.51
2018-12-27T11:41:43.546Z,51.81
2018-12-27T11:44:12.196Z,51.81
2018-12-27T11:46:40.649Z,51.82
2018-12-27T11:49:09.035Z,51.82
2018-12-27T11:51:37.426Z,52.19
2018-12-27T11:54:06.330Z,52.29
2018-12-27T11:56:34.718Z,52.29
2018-12-27T11:59:03.418Z,53.09
2018-12-27T12:01:31.806Z,53.09
2018-12-27T12:04:00.205Z,53.45
2018-12-27T12:06:28.598Z,53.45
2018-12-27T12:08:56.980Z,52.45
2018-12-27T12:11:25.371Z,52.45
2018-12-27T12:13:53.756Z,51.87
2018-12-27T12:16:22.170Z,52.42
2018-12-27T12:18:50.916Z,52.42
2018-12-27T12:21:19.313Z,52.00
2018-12-27T12:23:47.695Z,51.90
2018-12-27T12:26:16.095Z,52.16
2018-12-27T12:28:45.518Z,52.02
2018-12-27T12:31:13.949Z,52.02
2018-12-27T12:33:42.339Z,52.15
2018-12-27T12:36:11.165Z,51.49
2018-12-27T12:38:41.252Z,52.02
2018-12-27T12:41:09.695Z,51.23
2018-12-27T12:43:38.094Z,52.04
2018-12-27T12:46:06.489Z,51.34
2018-12-27T12:48:34.881Z,52.15
2018-12-27T12:51:03.275Z,52.15
2018-12-27T12:53:32.185Z,52.23
2018-12-27T12:56:00.705Z,51.13
2018-12-27T12:58:29.092Z,51.13
2018-12-27T13:00:57.484Z,51.65
2018-12-27T13:03:25.881Z,50.95
2018-12-27T13:05:54.311Z,50.18
2018-12-27T13:08:22.463Z,50.88
2018-12-27T13:10:50.850Z,49.98
2018-12-27T13:13:19.245Z,49.98
2018-12-27T13:15:47.639Z,50.50
2018-12-27T13:18:16.038Z,50.50
2018-12-27T13:20:44.582Z,49.15
2018-12-27T13:23:12.972Z,49.15
2018-12-27T13:25:41.359Z,48.43
2018-12-27T13:28:09.755Z,48.43
2018-12-27T13:30:38.309Z,48.55
2018-12-27T13:33:06.706Z,48.77
2018-12-27T13:35:35.199Z,48.77
2018-12-27T13:38:03.597Z,49.21
2018-12-27T13:40:31.982Z,48.49
2018-12-27T13:43:00.563Z,48.49
2018-12-27T13:45:28.939Z,49.54
2018-12-27T13:47:57.519Z,49.54
2018-12-27T13:50:25.918Z,49.98
2018-12-27T13:52:54.435Z,50.32
2018-12-27T13:55:22.828Z,51.17
2018-12-27T13:57:51.435Z,51.17
2018-12-27T14:00:19.828Z,51.14
2018-12-27T14:02:48.587Z,51.09
2018-12-27T14:05:16.983Z,51.09
2018-12-27T14:07:45.795Z,51.35
2018-12-27T14:10:14.867Z,51.35
2018-12-27T14:12:43.451Z,52.31
2018-12-27T14:15:11.846Z,53.04
2018-12-27T14:17:40.226Z,53.04
2018-12-27T14:20:09.186Z,54.13
2018-12-27T14:22:37.581Z,55.11
2018-12-27T14:25:06.324Z,55.11
2018-12-27T14:27:34.850Z,54.39
2018-12-27T14:30:04.487Z,54.02
2018-12-27T14:32:32.894Z,54.26
2018-12-27T14:35:01.282Z,54.94
2018-12-27T14:37:29.663Z,54.76
2018-12-27T14:39:58.050Z,54.01
2018-12-27T14:42:26.533Z,54.01
2018-12-27T14:44:54.929Z,54.01
2018-12-27T14:47:23.915Z,54.01
2018-12-27T14:49:52.372Z,54.35
2018-12-27T14:52:20.792Z,55.39
2018-12-27T14:54:49.563Z,55.39
2018-12-27T14:57:17.957Z,55.71
2018-12-27T14:59:46.563Z,56.13
2018-12-27T15:02:14.964Z,56.13
2018-12-27T15:04:43.442Z,56.41
2018-12-27T15:07:11.821Z,56.41
2018-12-27T15:09:40.240Z,57.25
2018-12-27T15:12:08.617Z,57.89
2018-12-27T15:14:37.466Z,57.99
2018-12-27T15:17:05.913Z,58.08
2018-12-27T15:19:34.245Z,58.36
2018-12-27T15:22:02.644Z,58.50
2018-12-27T15:24:31.555Z,58.95
2018-12-27T15:26:59.969Z,59.43
2018-12-27T15:29:28.416Z,59.54
2018-12-27T15:31:57.812Z,60.28
2018-12-27T15:34:26.227Z,60.28
2018-12-27T15:36:54.726Z,59.90
2018-12-27T15:39:23.086Z,59.57
2018-12-27T15:41:51.653Z,59.46
2018-12-27T15:44:20.400Z,59.66
2018-12-27T15:46:49.115Z,59.95
2018-12-27T15:49:17.516Z,60.00
2018-12-27T15:51:45.897Z,60.36
2018-12-27T15:54:14.309Z,60.36
2018-12-27T15:56:42.864Z,60.59
2018-12-27T15:59:13.167Z,60.59
2018-12-27T16:01:41.609Z,60.65
2018-12-27T16:04:09.989Z,60.61
2018-12-27T16:06:38.385Z,60.38
2018-12-27T16:09:07.396Z,60.60
2018-12-27T16:11:35.851Z,60.91
2018-12-27T16:14:04.231Z,61.26
2018-12-27T16:16:32.635Z,61.45
2018-12-27T16:19:01.022Z,61.58
2018-12-27T16:21:29.468Z,61.74
2018-12-27T16:23:57.850Z,62.06
2018-12-27T16:26:26.371Z,62.31
2018-12-27T16:28:54.760Z,62.58
2018-12-27T16:31:25.039Z,62.83
2018-12-27T16:33:53.562Z,63.04
2018-12-27T16:36:21.957Z,63.16
2018-12-27T16:38:50.419Z,63.23
2018-12-27T16:41:19.085Z,63.45
2018-12-27T16:43:47.490Z,63.59
2018-12-27T16:46:15.912Z,63.86
2018-12-27T16:48:45.896Z,63.93
2018-12-27T16:51:14.295Z,63.83
2018-12-27T16:53:42.735Z,63.96
2018-12-27T16:56:11.121Z,64.17
2018-12-27T16:58:39.616Z,63.92
2018-12-27T17:01:07.995Z,64.17
2018-12-27T17:03:36.454Z,63.95
2018-12-27T17:06:04.890Z,64.37
2018-12-27T17:08:33.550Z,64.29
2018-12-27T17:11:01.935Z,64.33
2018-12-27T17:13:30.328Z,64.43
2018-12-27T17:15:58.722Z,64.79
2018-12-27T17:18:27.111Z,64.95
2018-12-27T17:20:55.512Z,65.21
2018-12-27T17:23:23.898Z,65.50
2018-12-27T17:25:52.677Z,65.62
2018-12-27T17:28:21.061Z,65.74
2018-12-27T17:30:49.445Z,65.84
2018-12-27T17:33:17.836Z,65.91
2018-12-27T17:35:46.215Z,66.17
2018-12-27T17:38:14.607Z,66.31
2018-12-27T17:40:42.991Z,66.28
2018-12-27T17:43:11.628Z,66.17
2018-12-27T17:45:40.022Z,66.22
2018-12-27T17:48:08.402Z,66.14
2018-12-27T17:50:36.802Z,65.99
2018-12-27T17:53:05.318Z,66.41
2018-12-27T17:55:33.707Z,66.42
2018-12-27T17:58:02.096Z,66.59
2018-12-27T18:00:30.488Z,66.62
2018-12-27T18:02:58.876Z,66.89
2018-12-27T18:05:27.266Z,66.80
2018-12-27T18:07:55.660Z,66.99
2018-12-27T18:10:24.100Z,66.80
2018-12-27T18:12:52.533Z,66.91
2018-12-27T18:15:20.888Z,66.82
2018-12-27T18:17:49.977Z,66.70
2018-12-27T18:20:18.350Z,66.64
2018-12-27T18:22:46.745Z,66.49
2018-12-27T18:25:15.206Z,66.62
2018-12-27T18:27:43.607Z,66.50
2018-12-27T18:30:11.993Z,66.79
2018-12-27T18:32:41.054Z,67.08
2018-12-27T18:35:09.741Z,67.35
2018-12-27T18:37:38.630Z,67.08
2018-12-27T18:40:07.149Z,67.21
2018-12-27T18:42:35.798Z,67.74
2018-12-27T18:45:05.047Z,68.03
2018-12-27T18:47:33.603Z,68.13
2018-12-27T18:50:02.010Z,68.10
2018-12-27T18:52:30.391Z,68.20
2018-12-27T18:54:59.148Z,68.02
2018-12-27T18:57:27.538Z,68.69
2018-12-27T18:59:55.928Z,68.73
2018-12-27T19:02:24.320Z,68.87
2018-12-27T19:04:52.699Z,69.08
2018-12-27T19:07:21.098Z,69.21
2018-12-27T19:09:49.722Z,69.77
2018-12-27T19:12:54.088Z,69.69
2018-12-27T19:15:22.540Z,69.37
2018-12-27T19:17:52.373Z,69.08
2018-12-27T19:20:21.111Z,69.02
2018-12-27T19:22:52.594Z,68.94
2018-12-27T19:25:21.076Z,68.61
2018-12-27T19:27:49.457Z,68.65
2018-12-27T19:30:18.034Z,68.77
2018-12-27T19:32:46.564Z,68.85
2018-12-27T19:35:14.993Z,68.96
2018-12-27T19:37:43.425Z,69.05
2018-12-27T19:40:11.822Z,69.15
2018-12-27T19:42:40.226Z,69.17
2018-12-27T19:45:08.701Z,69.17
2018-12-27T19:47:37.256Z,69.07
2018-12-27T19:50:06.020Z,69.27
2018-12-27T19:52:34.849Z,69.01
2018-12-27T19:55:03.241Z,69.08
2018-12-27T19:57:31.627Z,69.08
2018-12-27T20:00:00.030Z,69.18
2018-12-27T20:02:28.408Z,69.39
2018-12-27T20:04:56.897Z,69.49
2018-12-27T20:07:25.335Z,69.23
2018-12-27T20:09:54.056Z,69.13
2018-12-27T20:12:22.919Z,68.82
2018-12-27T20:14:51.318Z,68.62
2018-12-27T20:17:19.709Z,68.70
2018-12-27T20:19:48.115Z,68.72
2018-12-27T20:22:16.494Z,68.66
2018-12-27T20:24:44.891Z,68.60
2018-12-27T20:27:13.275Z,68.78
2018-12-27T20:29:41.682Z,68.89
2018-12-27T20:32:10.128Z,69.04
2018-12-27T20:34:38.524Z,69.25
2018-12-27T20:37:07.085Z,69.48
2018-12-27T20:39:36.257Z,69.66
2018-12-27T20:42:05.101Z,69.74
2018-12-27T20:44:33.483Z,69.78
2018-12-27T20:47:01.879Z,69.53
2018-12-27T20:49:30.328Z,69.47
2018-12-27T20:51:59.009Z,69.35
2018-12-27T20:54:27.514Z,69.49
2018-12-27T20:56:55.977Z,69.77
2018-12-27T20:59:24.452Z,69.99
2018-12-27T21:01:52.855Z,70.08
2018-12-27T21:04:21.245Z,69.99
2018-12-27T21:06:50.168Z,70.13
2018-12-27T21:09:18.574Z,70.08
2018-12-27T21:11:47.037Z,70.00
2018-12-27T21:14:15.426Z,69.77
2018-12-27T21:16:43.821Z,69.85
2018-12-27T21:19:12.250Z,69.83
2018-12-27T21:21:41.006Z,70.02
2018-12-27T21:24:09.407Z,70.14
2018-12-27T21:26:37.894Z,70.39
2018-12-27T21:29:06.369Z,70.84
2018-12-27T21:31:34.750Z,70.84
2018-12-27T21:34:03.630Z,70.78
2018-12-27T21:36:32.009Z,70.73
2018-12-27T21:39:00.605Z,71.06
2018-12-27T21:41:29.281Z,71.35
2018-12-27T21:43:57.674Z,71.61
2018-12-27T21:46:26.062Z,71.68
2018-12-27T21:48:54.913Z,71.95
2018-12-27T21:51:23.290Z,71.46
2018-12-27T21:53:51.686Z,70.89
2018-12-27T21:56:20.068Z,70.72
2018-12-27T21:58:48.459Z,70.63
2018-12-27T22:01:16.845Z,70.69
2018-12-27T22:03:45.244Z,70.97
2018-12-27T22:06:13.622Z,70.58
2018-12-27T22:08:43.620Z,70.74
2018-12-27T22:11:11.926Z,70.94
2018-12-27T22:13:40.313Z,70.70
2018-12-27T22:16:08.711Z,70.42
2018-12-27T22:18:37.516Z,70.28
2018-12-27T22:21:06.401Z,70.43
2018-12-27T22:23:34.790Z,70.58
2018-12-27T22:26:03.570Z,70.34
2018-12-27T22:28:32.257Z,70.11
2018-12-27T22:31:00.654Z,69.80
2018-12-27T22:33:29.037Z,70.18
2018-12-27T22:35:57.433Z,70.43
2018-12-27T22:38:26.215Z,70.42
2018-12-27T22:40:54.595Z,70.77
2018-12-27T22:43:23.364Z,70.72
2018-12-27T22:45:51.779Z,70.46
2018-12-27T22:48:20.159Z,70.28
2018-12-27T22:50:48.796Z,70.43
2018-12-27T22:53:17.476Z,70.68
2018-12-27T22:55:54.550Z,70.83
2018-12-27T22:58:22.943Z,71.08
2018-12-27T23:00:52.891Z,71.14
2018-12-27T23:03:21.279Z,71.17
2018-12-27T23:05:49.664Z,71.13
2018-12-27T23:08:18.061Z,71.09
2018-12-27T23:10:46.675Z,71.42
2018-12-27T23:13:15.365Z,71.46
2018-12-27T23:15:43.749Z,71.31
2018-12-27T23:18:12.145Z,71.22
2018-12-27T23:20:40.817Z,71.06
2018-12-27T23:23:09.472Z,71.07
2018-12-27T23:25:38.170Z,70.88
2018-12-27T23:28:06.560Z,70.79
2018-12-27T23:30:35.966Z,70.68
2018-12-27T23:33:04.650Z,70.64
2018-12-27T23:35:33.039Z,70.66
2018-12-27T23:38:01.435Z,70.53
2018-12-27T23:40:29.867Z,70.45
2018-12-27T23:42:58.257Z,70.21
2018-12-27T23:45:27.059Z,69.99
2018-12-27T23:47:55.741Z,69.95
2018-12-27T23:50:24.122Z,69.86
2018-12-27T23:52:52.510Z,70.28
2018-12-27T23:55:21.202Z,70.58
2018-12-27T23:57:49.869Z,70.77
